createdAt,value
2022-10-22T00:01:39.738Z,97841.06
2022-10-22T00:04:06.766Z,97842.91
2022-10-22T00:06:34.152Z,97837.94
2022-10-22T00:09:01.008Z,97812.00
2022-10-22T00:11:27.755Z,97830.63
2022-10-22T00:13:54.598Z,97848.09
2022-10-22T00:16:21.439Z,97844.38
2022-10-22T00:18:48.065Z,97844.38
2022-10-22T00:21:15.204Z,97861.38
2022-10-22T00:23:43.143Z,97865.91
2022-10-22T00:26:11.056Z,97866.47
2022-10-22T00:28:38.110Z,97870.75
2022-10-22T00:31:05.203Z,97868.56
2022-10-22T00:33:31.838Z,97815.25
2022-10-22T00:35:58.626Z,97865.88
2022-10-22T00:38:25.161Z,97865.75
2022-10-22T00:40:51.963Z,97867.97
2022-10-22T00:43:19.742Z,97863.91
2022-10-22T00:45:46.645Z,97883.19
2022-10-22T00:48:16.417Z,97887.50
2022-10-22T00:50:52.777Z,97883.56
2022-10-22T00:53:22.465Z,97890.66
2022-10-22T00:55:52.602Z,97867.94
2022-10-22T00:58:24.285Z,97891.25
2022-10-22T01:00:51.348Z,97897.00
2022-10-22T01:03:17.961Z,97905.72
2022-10-22T01:05:50.727Z,97904.13
2022-10-22T01:08:44.575Z,97898.63
2022-10-22T01:11:32.943Z,97899.81
2022-10-22T01:14:15.148Z,97895.53
2022-10-22T01:16:56.838Z,97887.41
2022-10-22T01:19:45.796Z,97875.28
2022-10-22T01:22:24.156Z,97853.94
2022-10-22T01:24:57.543Z,97853.19
2022-10-22T01:27:50.107Z,97845.34
2022-10-22T01:30:18.434Z,97825.59
2022-10-22T01:32:56.233Z,97813.34
2022-10-22T01:35:27.419Z,97782.81
2022-10-22T01:37:58.655Z,97823.56
2022-10-22T01:40:28.290Z,97822.06
2022-10-22T01:43:00.718Z,97817.66
2022-10-22T01:45:30.286Z,97770.59
2022-10-22T01:48:19.797Z,97816.63
2022-10-22T01:51:12.908Z,97808.31
2022-10-22T01:54:03.920Z,97815.25
2022-10-22T01:56:45.419Z,97820.00
2022-10-22T01:59:53.271Z,97819.97
2022-10-22T02:02:38.329Z,97822.16
2022-10-22T02:05:12.902Z,97831.94
2022-10-22T02:07:45.103Z,97826.31
2022-10-22T02:10:13.260Z,97787.56
2022-10-22T02:12:43.242Z,97818.00
2022-10-22T02:15:12.559Z,97793.00
2022-10-22T02:17:41.492Z,97833.94
2022-10-22T02:20:13.102Z,97816.50
2022-10-22T02:22:40.102Z,97828.28
2022-10-22T02:25:07.699Z,97792.66
2022-10-22T02:27:58.564Z,97840.66
2022-10-22T02:30:26.241Z,97839.00
2022-10-22T02:33:01.916Z,97845.97
2022-10-22T02:35:30.059Z,97847.00
2022-10-22T02:37:58.212Z,97841.66
2022-10-22T02:40:25.637Z,97849.50
2022-10-22T02:42:53.664Z,97851.44
2022-10-22T02:45:21.168Z,97854.16
2022-10-22T02:47:47.787Z,97862.59
2022-10-22T02:50:14.596Z,97855.91
2022-10-22T02:52:41.399Z,97860.44
2022-10-22T02:55:08.798Z,97847.72
2022-10-22T02:57:35.402Z,97857.47
2022-10-22T03:00:02.074Z,97849.66
2022-10-22T03:02:28.616Z,97847.81
2022-10-22T03:04:55.239Z,97846.06
2022-10-22T03:07:21.772Z,97839.44
2022-10-22T03:09:48.338Z,97850.00
2022-10-22T03:12:14.981Z,97857.06
2022-10-22T03:14:41.618Z,97847.47
2022-10-22T03:17:08.839Z,97818.19
2022-10-22T03:19:35.973Z,97844.72
2022-10-22T03:22:07.481Z,97844.47
2022-10-22T03:24:44.634Z,97840.44
2022-10-22T03:27:14.153Z,97838.69
2022-10-22T03:29:41.893Z,97849.13
2022-10-22T03:32:08.614Z,97830.59
2022-10-22T03:34:35.306Z,97877.75
2022-10-22T03:37:02.859Z,97847.38
2022-10-22T03:39:32.021Z,97869.06
2022-10-22T03:41:58.894Z,97881.56
2022-10-22T03:44:26.277Z,97883.97
2022-10-22T03:46:53.082Z,97892.09
2022-10-22T03:49:19.681Z,97868.47
2022-10-22T03:51:46.263Z,97906.41
2022-10-22T03:54:13.068Z,97915.16
2022-10-22T03:56:39.612Z,97917.97
2022-10-22T03:59:06.139Z,97915.84
2022-10-22T04:01:32.853Z,97908.66
2022-10-22T04:03:59.532Z,97911.63
2022-10-22T04:06:26.071Z,97922.16
2022-10-22T04:08:52.753Z,97920.06
2022-10-22T04:11:19.438Z,97925.16
2022-10-22T04:13:45.986Z,97894.94
2022-10-22T04:16:18.594Z,97934.06
2022-10-22T04:18:47.202Z,97934.41
2022-10-22T04:21:15.663Z,97937.53
2022-10-22T04:23:47.848Z,97938.69
2022-10-22T04:26:15.334Z,97944.03
2022-10-22T04:28:42.688Z,97948.97
2022-10-22T04:31:11.929Z,97945.72
2022-10-22T04:33:39.318Z,97949.75
2022-10-22T04:36:10.624Z,97951.38
2022-10-22T04:38:38.304Z,97932.59
2022-10-22T04:41:28.909Z,97951.88
2022-10-22T04:43:57.296Z,97952.56
2022-10-22T04:46:27.586Z,97949.75
2022-10-22T04:48:54.655Z,97944.13
2022-10-22T04:51:23.975Z,97943.44
2022-10-22T04:53:51.127Z,97947.88
2022-10-22T04:56:23.215Z,97956.50
2022-10-22T04:58:58.688Z,97946.78
2022-10-22T05:01:28.544Z,97937.25
2022-10-22T05:03:57.153Z,97949.38
2022-10-22T05:06:25.166Z,97949.28
2022-10-22T05:08:57.184Z,97948.06
2022-10-22T05:11:30.319Z,97950.78
2022-10-22T05:13:58.937Z,97948.84
2022-10-22T05:16:28.987Z,97928.88
2022-10-22T05:18:58.212Z,97951.66
2022-10-22T05:21:24.789Z,97956.81
2022-10-22T05:23:51.766Z,97948.41
2022-10-22T05:26:20.964Z,97966.72
2022-10-22T05:28:49.958Z,97957.94
2022-10-22T05:31:17.734Z,97952.97
2022-10-22T05:33:45.503Z,97957.25
2022-10-22T05:36:21.128Z,97949.44
2022-10-22T05:38:49.044Z,97959.47
2022-10-22T05:41:18.511Z,97956.13
2022-10-22T05:43:45.874Z,97955.88
2022-10-22T05:46:19.870Z,97954.16
2022-10-22T05:48:53.633Z,97960.63
2022-10-22T05:51:21.057Z,97950.78
2022-10-22T05:53:52.789Z,97961.38
2022-10-22T05:56:19.476Z,97956.22
2022-10-22T05:58:46.701Z,97961.38
2022-10-22T06:01:19.791Z,97952.56
2022-10-22T06:03:47.465Z,97966.50
2022-10-22T06:06:20.284Z,97973.94
2022-10-22T06:08:51.465Z,97981.66
2022-10-22T06:11:19.872Z,97950.56
2022-10-22T06:13:47.909Z,97973.75
2022-10-22T06:16:15.170Z,97982.75
2022-10-22T06:18:41.740Z,97984.59
2022-10-22T06:21:11.092Z,97980.75
2022-10-22T06:23:38.759Z,97977.56
2022-10-22T06:26:06.802Z,97977.69
2022-10-22T06:28:34.375Z,97982.47
2022-10-22T06:31:02.201Z,97980.81
2022-10-22T06:33:29.391Z,97990.53
2022-10-22T06:35:56.094Z,97992.94
2022-10-22T06:38:22.791Z,98001.34
2022-10-22T06:40:49.410Z,98010.56
2022-10-22T06:43:16.029Z,98012.59
2022-10-22T06:45:42.773Z,98021.19
2022-10-22T06:48:09.320Z,98016.25
2022-10-22T06:50:36.264Z,98032.19
2022-10-22T06:53:03.243Z,98030.94
2022-10-22T06:55:30.204Z,98041.53
2022-10-22T06:57:56.826Z,98062.69
2022-10-22T07:00:23.476Z,98070.03
2022-10-22T07:02:57.582Z,98075.72
2022-10-22T07:05:25.942Z,98080.25
2022-10-22T07:07:52.522Z,98093.22
2022-10-22T07:10:19.126Z,98084.72
2022-10-22T07:12:45.750Z,98054.91
2022-10-22T07:15:12.435Z,98091.94
2022-10-22T07:20:07.046Z,98098.94
2022-10-22T07:22:33.548Z,98107.19
2022-10-22T07:25:03.903Z,98111.50
2022-10-22T07:27:34.067Z,98125.78
2022-10-22T07:30:00.615Z,98128.41
2022-10-22T07:32:27.228Z,98141.41
2022-10-22T07:34:54.197Z,98139.81
2022-10-22T07:37:21.028Z,98135.38
2022-10-22T07:39:50.617Z,98147.97
2022-10-22T07:42:17.286Z,98146.66
2022-10-22T07:44:43.795Z,98158.34
2022-10-22T07:47:10.618Z,98159.91
2022-10-22T07:49:37.202Z,98162.53
2022-10-22T07:52:03.915Z,98163.22
2022-10-22T07:54:30.533Z,98166.25
2022-10-22T07:56:57.230Z,98159.50
2022-10-22T07:59:23.758Z,98166.63
2022-10-22T08:01:50.380Z,98165.59
2022-10-22T08:04:16.929Z,98160.44
2022-10-22T08:06:45.866Z,98168.28
2022-10-22T08:09:14.142Z,98180.34
2022-10-22T08:11:40.975Z,98172.69
2022-10-22T08:14:07.488Z,98170.50
2022-10-22T08:16:34.320Z,98171.38
2022-10-22T08:19:01.184Z,98175.03
2022-10-22T08:21:28.560Z,98169.69
2022-10-22T08:23:55.505Z,98177.22
2022-10-22T08:26:22.147Z,98177.88
2022-10-22T08:28:48.759Z,98177.59
2022-10-22T08:31:15.466Z,98177.84
2022-10-22T08:33:42.184Z,98165.41
2022-10-22T08:36:09.727Z,98172.69
2022-10-22T08:38:36.304Z,98170.03
2022-10-22T08:41:30.383Z,98175.84
2022-10-22T08:44:10.742Z,98180.69
2022-10-22T08:46:58.317Z,98183.06
2022-10-22T08:49:29.464Z,98183.59
2022-10-22T08:51:58.414Z,98185.59
2022-10-22T08:54:37.206Z,98179.59
2022-10-22T08:57:16.119Z,98179.75
2022-10-22T08:59:50.477Z,98174.13
2022-10-22T09:02:39.153Z,98194.31
2022-10-22T09:05:39.455Z,98193.84
2022-10-22T09:08:11.376Z,98187.88
2022-10-22T09:10:44.163Z,98193.88
2022-10-22T09:13:16.006Z,98198.44
2022-10-22T09:15:44.988Z,98206.84
2022-10-22T09:18:29.121Z,98201.84
2022-10-22T09:21:16.641Z,98190.34
2022-10-22T09:23:52.325Z,98200.53
2022-10-22T09:26:18.908Z,98198.38
2022-10-22T09:28:50.380Z,98201.84
2022-10-22T09:31:17.419Z,98203.50
2022-10-22T09:33:46.126Z,98203.78
2022-10-22T09:36:22.227Z,98205.41
2022-10-22T09:38:51.927Z,98211.66
2022-10-22T09:41:26.013Z,98210.84
2022-10-22T09:43:52.882Z,98200.81
2022-10-22T09:46:27.932Z,98207.59
2022-10-22T09:49:06.445Z,98203.34
2022-10-22T09:51:46.256Z,98213.97
2022-10-22T09:54:17.555Z,98211.91
2022-10-22T09:56:51.196Z,98217.28
2022-10-22T09:59:24.824Z,98215.13
2022-10-22T10:02:08.363Z,98212.94
2022-10-22T10:04:48.887Z,98214.56
2022-10-22T10:07:27.767Z,98220.63
2022-10-22T10:09:54.962Z,98219.88
2022-10-22T10:12:42.626Z,98218.59
2022-10-22T10:15:50.908Z,98226.78
2022-10-22T10:18:54.839Z,98228.69
2022-10-22T10:21:47.631Z,98233.75
2022-10-22T10:24:23.710Z,98226.84
2022-10-22T10:27:12.924Z,98235.38
2022-10-22T10:29:45.566Z,98230.06
2022-10-22T10:32:24.590Z,98225.31
2022-10-22T10:35:22.114Z,98227.91
2022-10-22T10:38:10.649Z,98229.19
2022-10-22T10:40:37.250Z,98224.97
2022-10-22T10:43:15.147Z,98231.97
2022-10-22T10:45:55.882Z,98234.97
2022-10-22T10:48:31.428Z,98231.84
2022-10-22T10:51:12.734Z,98228.94
2022-10-22T10:54:01.179Z,98230.13
2022-10-22T10:56:38.210Z,98229.66
2022-10-22T10:59:19.042Z,98227.16
2022-10-22T11:02:10.612Z,98229.84
2022-10-22T11:05:14.107Z,98237.69
2022-10-22T11:07:52.328Z,98200.09
2022-10-22T11:10:37.031Z,98232.53
2022-10-22T11:13:19.085Z,98200.38
2022-10-22T11:16:05.442Z,98237.22
2022-10-22T11:18:55.814Z,98226.75
2022-10-22T11:21:27.129Z,98235.78
2022-10-22T11:24:18.829Z,98238.00
2022-10-22T11:26:51.478Z,98242.75
2022-10-22T11:29:23.102Z,98245.88
2022-10-22T11:31:53.471Z,98238.38
2022-10-22T11:34:33.813Z,98231.44
2022-10-22T11:37:01.928Z,98227.16
2022-10-22T11:39:43.118Z,98234.28
2022-10-22T11:42:17.611Z,98188.56
2022-10-22T11:44:49.861Z,98232.31
2022-10-22T11:47:28.216Z,98233.56
2022-10-22T11:50:16.552Z,98227.16
2022-10-22T11:52:59.757Z,98231.88
2022-10-22T11:55:41.979Z,98228.38
2022-10-22T11:58:35.344Z,98232.22
2022-10-22T12:01:01.958Z,98236.13
2022-10-22T12:03:28.412Z,98241.72
2022-10-22T12:06:10.235Z,98237.56
2022-10-22T12:08:43.778Z,98238.69
2022-10-22T12:11:10.379Z,98238.19
2022-10-22T12:13:55.280Z,98243.59
2022-10-22T12:16:32.315Z,98231.97
2022-10-22T12:19:14.120Z,98241.75
2022-10-22T12:21:43.567Z,98235.19
2022-10-22T12:24:22.443Z,98229.41
2022-10-22T12:26:49.889Z,98231.81
2022-10-22T12:29:18.537Z,98234.47
2022-10-22T12:31:46.664Z,98231.50
2022-10-22T12:34:15.699Z,98230.09
2022-10-22T12:36:42.662Z,98213.41
2022-10-22T12:39:16.500Z,98221.81
2022-10-22T12:41:44.224Z,98218.34
2022-10-22T12:44:14.157Z,98212.78
2022-10-22T12:46:42.854Z,98206.66
2022-10-22T12:49:19.040Z,98201.50
2022-10-22T12:51:46.906Z,98186.44
2022-10-22T12:54:23.190Z,98200.56
2022-10-22T12:56:50.381Z,98200.47
2022-10-22T12:59:30.634Z,98199.31
2022-10-22T13:01:57.895Z,98197.75
2022-10-22T13:04:38.286Z,98205.47
2022-10-22T13:07:12.460Z,98210.69
2022-10-22T13:09:39.008Z,98206.19
2022-10-22T13:12:07.312Z,98204.72
2022-10-22T13:14:36.810Z,98212.16
2022-10-22T13:17:19.636Z,98213.22
2022-10-22T13:19:52.399Z,98210.44
2022-10-22T13:22:31.327Z,98204.47
2022-10-22T13:25:03.762Z,98200.34
2022-10-22T13:27:31.496Z,98202.47
2022-10-22T13:30:02.876Z,98198.16
2022-10-22T13:32:32.853Z,98198.72
2022-10-22T13:35:01.972Z,98198.50
2022-10-22T13:37:31.480Z,98164.78
2022-10-22T13:39:58.298Z,98205.00
2022-10-22T13:42:25.581Z,98209.03
2022-10-22T13:44:52.236Z,98212.91
2022-10-22T13:47:29.535Z,98208.22
2022-10-22T13:49:59.550Z,98181.97
2022-10-22T13:52:39.087Z,98210.69
2022-10-22T13:55:17.819Z,98206.66
2022-10-22T13:57:44.945Z,98205.13
2022-10-22T14:00:13.952Z,98176.91
2022-10-22T14:02:43.117Z,98221.50
2022-10-22T14:05:10.470Z,98218.63
2022-10-22T14:07:38.251Z,98223.44
2022-10-22T14:10:17.116Z,98218.56
2022-10-22T14:12:44.040Z,98207.09
2022-10-22T14:15:13.299Z,98226.44
2022-10-22T14:17:42.470Z,98189.22
2022-10-22T14:20:21.325Z,98223.09
2022-10-22T14:22:50.190Z,98237.00
2022-10-22T14:25:20.372Z,98217.03
2022-10-22T14:27:47.438Z,98233.19
2022-10-22T14:30:19.246Z,98226.34
2022-10-22T14:32:46.367Z,98231.91
2022-10-22T14:35:14.384Z,98230.28
2022-10-22T14:37:41.042Z,98241.28
2022-10-22T14:40:09.541Z,98242.94
2022-10-22T14:42:40.084Z,98249.78
2022-10-22T14:45:12.960Z,98246.78
2022-10-22T14:47:41.634Z,98239.63
2022-10-22T14:50:08.981Z,98249.56
2022-10-22T14:52:35.768Z,98238.44
2022-10-22T14:55:02.386Z,98243.31
2022-10-22T14:57:29.020Z,98254.44
2022-10-22T14:59:55.878Z,98251.22
2022-10-22T15:02:22.481Z,98257.00
2022-10-22T15:04:49.390Z,98254.69
2022-10-22T15:07:18.921Z,98254.78
2022-10-22T15:09:45.762Z,98252.19
2022-10-22T15:12:12.627Z,98262.75
2022-10-22T15:14:39.156Z,98261.25
2022-10-22T15:17:05.754Z,98262.47
2022-10-22T15:19:32.251Z,98256.06
2022-10-22T15:21:59.088Z,98253.97
2022-10-22T15:24:25.609Z,98264.06
2022-10-22T15:26:52.247Z,98266.41
2022-10-22T15:29:18.798Z,98268.03
2022-10-22T15:31:51.587Z,98272.63
2022-10-22T15:34:20.805Z,98285.03
2022-10-22T15:36:47.303Z,98281.28
2022-10-22T15:39:14.158Z,98282.47
2022-10-22T15:41:41.184Z,98289.34
2022-10-22T15:44:08.481Z,98291.19
2022-10-22T15:46:35.661Z,98289.34
2022-10-22T15:49:02.285Z,98286.22
2022-10-22T15:51:28.818Z,98293.44
2022-10-22T15:53:58.465Z,98288.13
2022-10-22T15:56:27.276Z,98295.53
2022-10-22T15:58:59.605Z,98295.41
2022-10-22T16:01:27.117Z,98290.50
2022-10-22T16:03:54.550Z,98296.34
2022-10-22T16:06:21.198Z,98293.84
2022-10-22T16:08:47.749Z,98274.19
2022-10-22T16:11:14.413Z,98302.72
2022-10-22T16:13:40.924Z,98301.91
2022-10-22T16:16:07.856Z,98312.91
2022-10-22T16:18:34.449Z,98321.16
2022-10-22T16:21:01.039Z,98316.25
2022-10-22T16:23:27.541Z,98323.84
2022-10-22T16:25:54.153Z,98331.38
2022-10-22T16:28:20.738Z,98330.91
2022-10-22T16:30:47.399Z,98332.19
2022-10-22T16:33:14.112Z,98335.56
2022-10-22T16:35:42.419Z,98341.78
2022-10-22T16:38:10.647Z,98331.94
2022-10-22T16:40:37.546Z,98341.47
2022-10-22T16:43:04.075Z,98344.13
2022-10-22T16:45:30.996Z,98343.91
2022-10-22T16:47:57.897Z,98345.75
2022-10-22T16:50:24.587Z,98353.13
2022-10-22T16:52:51.132Z,98354.59
2022-10-22T16:55:18.132Z,98347.44
2022-10-22T16:57:50.277Z,98362.94
2022-10-22T17:00:17.213Z,98357.44
2022-10-22T17:02:44.038Z,98359.06
2022-10-22T17:05:11.143Z,98355.34
2022-10-22T17:07:37.795Z,98355.66
2022-10-22T17:10:05.009Z,98333.91
2022-10-22T17:12:31.569Z,98349.81
2022-10-22T17:14:58.203Z,98360.47
2022-10-22T17:17:24.793Z,98356.16
2022-10-22T17:19:51.382Z,98362.91
2022-10-22T17:22:18.497Z,98352.88
2022-10-22T17:24:45.243Z,98357.75
2022-10-22T17:27:11.813Z,98361.47
2022-10-22T17:29:38.444Z,98329.72
2022-10-22T17:32:05.493Z,98365.34
2022-10-22T17:34:32.117Z,98355.41
2022-10-22T17:36:59.663Z,98367.78
2022-10-22T17:39:26.942Z,98338.94
2022-10-22T17:41:53.467Z,98370.56
2022-10-22T17:44:20.038Z,98369.56
2022-10-22T17:46:46.624Z,98366.78
2022-10-22T17:49:17.559Z,98370.50
2022-10-22T17:51:44.365Z,98366.47
2022-10-22T17:54:11.945Z,98374.34
2022-10-22T17:56:39.211Z,98374.34
2022-10-22T17:59:07.135Z,98377.78
2022-10-22T18:01:36.065Z,98375.56
2022-10-22T18:04:06.411Z,98377.69
2022-10-22T18:06:33.422Z,98381.47
2022-10-22T18:09:00.148Z,98377.81
2022-10-22T18:11:27.554Z,98380.47
2022-10-22T18:13:56.455Z,98380.75
2022-10-22T18:16:23.951Z,98384.28
2022-10-22T18:18:53.836Z,98389.81
2022-10-22T18:21:22.256Z,98356.84
2022-10-22T18:23:48.976Z,98396.19
2022-10-22T18:26:17.477Z,98404.41
2022-10-22T18:28:45.289Z,98398.53
2022-10-22T18:31:20.789Z,98400.38
2022-10-22T18:33:48.164Z,98407.56
2022-10-22T18:36:17.182Z,98401.88
2022-10-22T18:38:43.852Z,98401.88
2022-10-22T18:41:13.694Z,98339.09
2022-10-22T18:43:40.375Z,98395.97
2022-10-22T18:46:07.698Z,98399.66
2022-10-22T18:48:35.639Z,98397.00
2022-10-22T18:51:07.838Z,98402.69
2022-10-22T18:53:36.267Z,98417.00
2022-10-22T18:56:08.225Z,98422.31
2022-10-22T18:58:39.177Z,98419.25
2022-10-22T19:01:09.457Z,98416.63
2022-10-22T19:03:36.548Z,98425.16
2022-10-22T19:06:03.739Z,98419.88
2022-10-22T19:08:30.828Z,98424.75
2022-10-22T19:10:58.080Z,98414.97
2022-10-22T19:13:24.669Z,98419.25
2022-10-22T19:15:52.508Z,98424.75
2022-10-22T19:18:19.409Z,98407.00
2022-10-22T19:20:58.210Z,98409.66
2022-10-22T19:23:25.090Z,98417.38
2022-10-22T19:26:03.481Z,98420.22
2022-10-22T19:28:30.094Z,98429.81
2022-10-22T19:30:57.436Z,98410.84
2022-10-22T19:33:25.937Z,98409.97
2022-10-22T19:35:52.535Z,98434.28
2022-10-22T19:38:19.357Z,98430.22
2022-10-22T19:40:46.002Z,98431.03
2022-10-22T19:43:14.365Z,98441.81
2022-10-22T19:45:43.285Z,98435.31
2022-10-22T19:48:09.991Z,98441.22
2022-10-22T19:50:36.515Z,98442.41
2022-10-22T19:53:03.143Z,98446.69
2022-10-22T19:55:29.751Z,98396.88
2022-10-22T19:57:56.630Z,98447.06
2022-10-22T20:00:23.382Z,98456.22
2022-10-22T20:02:50.031Z,98454.56
2022-10-22T20:05:16.947Z,98452.94
2022-10-22T20:07:44.036Z,98456.63
2022-10-22T20:10:10.993Z,98453.53
2022-10-22T20:12:37.620Z,98455.78
2022-10-22T20:15:04.822Z,98458.88
2022-10-22T20:17:31.563Z,98456.81
2022-10-22T20:19:58.184Z,98463.09
2022-10-22T20:22:24.946Z,98468.22
2022-10-22T20:24:51.731Z,98454.72
2022-10-22T20:27:18.336Z,98461.09
2022-10-22T20:29:44.879Z,98459.06
2022-10-22T20:32:12.449Z,98457.25
2022-10-22T20:34:38.996Z,98454.00
2022-10-22T20:37:05.640Z,98447.06
2022-10-22T20:39:32.219Z,98446.28
2022-10-22T20:41:58.905Z,98447.50
2022-10-22T20:44:25.468Z,98446.63
2022-10-22T20:46:52.437Z,98436.84
2022-10-22T20:49:19.955Z,98442.94
2022-10-22T20:51:47.228Z,98445.94
2022-10-22T20:54:15.331Z,98433.75
2022-10-22T20:56:43.246Z,98431.09
2022-10-22T20:59:10.920Z,98441.47
2022-10-22T21:01:49.324Z,98447.97
2022-10-22T21:04:17.578Z,98403.50
2022-10-22T21:06:44.132Z,98443.06
2022-10-22T21:09:13.148Z,98446.53
2022-10-22T21:11:42.012Z,98399.16
2022-10-22T21:14:10.264Z,98455.88
2022-10-22T21:16:41.399Z,98458.28
2022-10-22T21:19:08.072Z,98456.44
2022-10-22T21:21:34.666Z,98455.19
2022-10-22T21:24:01.311Z,98455.44
2022-10-22T21:26:27.838Z,98461.16
2022-10-22T21:28:54.440Z,98459.94
2022-10-22T21:31:21.186Z,98459.53
2022-10-22T21:33:49.576Z,98460.97
2022-10-22T21:36:21.665Z,98463.03
2022-10-22T21:38:53.684Z,98459.97
2022-10-22T21:41:23.732Z,98465.31
2022-10-22T21:43:50.858Z,98459.41
2022-10-22T21:46:20.149Z,98463.72
2022-10-22T21:48:47.161Z,98464.31
2022-10-22T21:51:16.799Z,98468.63
2022-10-22T21:53:44.081Z,98465.72
2022-10-22T21:56:16.390Z,98459.66
2022-10-22T21:58:43.188Z,98446.66
2022-10-22T22:01:10.927Z,98454.59
2022-10-22T22:03:37.858Z,98455.78
2022-10-22T22:06:06.283Z,98457.91
2022-10-22T22:08:33.449Z,98452.47
2022-10-22T22:11:05.920Z,98452.91
2022-10-22T22:13:32.827Z,98452.94
2022-10-22T22:16:04.157Z,98452.75
2022-10-22T22:18:32.419Z,98450.91
2022-10-22T22:21:00.085Z,98450.28
2022-10-22T22:23:27.387Z,98451.28
2022-10-22T22:25:59.154Z,98448.03
2022-10-22T22:28:26.995Z,98452.91
2022-10-22T22:30:53.959Z,98448.44
2022-10-22T22:33:21.662Z,98448.44
2022-10-22T22:35:48.669Z,98442.91
2022-10-22T22:38:16.619Z,98439.44
2022-10-22T22:40:43.421Z,98436.19
2022-10-22T22:43:11.241Z,98427.88
2022-10-22T22:45:37.978Z,98436.06
2022-10-22T22:48:05.635Z,98433.25
2022-10-22T22:50:32.217Z,98429.19
2022-10-22T22:52:59.074Z,98435.69
2022-10-22T22:55:27.037Z,98435.28
2022-10-22T22:57:54.202Z,98440.75
2022-10-22T23:00:21.850Z,98442.94
2022-10-22T23:02:48.429Z,98447.44
2022-10-22T23:05:14.950Z,98442.94
2022-10-22T23:07:41.542Z,98444.78
2022-10-22T23:10:08.596Z,98442.50
2022-10-22T23:12:35.310Z,98440.06
2022-10-22T23:15:02.403Z,98440.50
2022-10-22T23:17:29.370Z,98430.75
2022-10-22T23:19:56.009Z,98434.81
2022-10-22T23:22:22.878Z,98428.53
2022-10-22T23:24:49.659Z,98429.53
2022-10-22T23:27:16.397Z,98429.53
2022-10-22T23:29:43.020Z,98429.13
2022-10-22T23:32:13.547Z,98432.59
2022-10-22T23:34:40.189Z,98423.84
2022-10-22T23:37:06.925Z,98423.44
2022-10-22T23:39:33.587Z,98424.28
2022-10-22T23:42:00.163Z,98415.53
2022-10-22T23:44:26.872Z,98402.25
2022-10-22T23:46:53.493Z,98415.13
2022-10-22T23:49:20.003Z,98416.78
2022-10-22T23:51:46.810Z,98404.56
2022-10-22T23:54:15.774Z,98404.38
2022-10-22T23:56:42.400Z,98405.59
2022-10-22T23:59:09.086Z,98413.91
